sensor_id;sensor_type;location;lat;lon;timestamp;pressure;altitude;pressure_sealevel;temperature;humidity
14041;BME280;7095;51.388;6.196;2022-09-21T00:01:40;55591.19;;;-145.32;100.00
14041;BME280;7095;51.388;6.196;2022-09-21T00:04:09;55547.44;;;-145.32;100.00
14041;BME280;7095;51.388;6.196;2022-09-21T00:06:38;55660.81;;;-145.32;100.00
14041;BME280;7095;51.388;6.196;2022-09-21T00:09:06;55696.63;;;-145.32;100.00
14041;BME280;7095;51.388;6.196;2022-09-21T00:11:35;55599.16;;;-145.32;100.00
14041;BME280;7095;51.388;6.196;2022-09-21T00:14:06;55585.22;;;-145.32;100.00
14041;BME280;7095;51.388;6.196;2022-09-21T00:16:41;55662.81;;;-145.32;100.00
14041;BME280;7095;51.388;6.196;2022-09-21T00:19:10;55831.91;;;-145.32;100.00
14041;BME280;7095;51.388;6.196;2022-09-21T00:21:39;56042.78;;;-145.32;100.00
14041;BME280;7095;51.388;6.196;2022-09-21T00:24:08;56096.50;;;-145.32;100.00
14041;BME280;7095;51.388;6.196;2022-09-21T00:26:38;55961.22;;;-145.32;100.00
14041;BME280;7095;51.388;6.196;2022-09-21T00:29:08;56092.53;;;-145.32;100.00
14041;BME280;7095;51.388;6.196;2022-09-21T00:31:37;56233.78;;;-145.32;100.00
14041;BME280;7095;51.388;6.196;2022-09-21T00:34:08;56160.19;;;-145.32;100.00
14041;BME280;7095;51.388;6.196;2022-09-21T00:36:37;56205.94;;;-145.32;100.00
14041;BME280;7095;51.388;6.196;2022-09-21T00:39:05;56194.00;;;-145.32;100.00
14041;BME280;7095;51.388;6.196;2022-09-21T00:41:37;56259.66;;;-145.32;100.00
14041;BME280;7095;51.388;6.196;2022-09-21T00:44:27;56359.13;;;-145.32;100.00
14041;BME280;7095;51.388;6.196;2022-09-21T00:47:01;56496.44;;;-145.32;100.00
14041;BME280;7095;51.388;6.196;2022-09-21T00:49:34;56675.53;;;-145.32;100.00
14041;BME280;7095;51.388;6.196;2022-09-21T00:52:04;56818.81;;;-145.32;100.00
14041;BME280;7095;51.388;6.196;2022-09-21T00:54:37;56872.53;;;-145.32;100.00
14041;BME280;7095;51.388;6.196;2022-09-21T00:57:08;56993.94;;;-145.32;100.00
14041;BME280;7095;51.388;6.196;2022-09-21T00:59:38;56858.59;;;-145.32;100.00
14041;BME280;7095;51.388;6.196;2022-09-21T01:02:07;56576.03;;;-145.32;100.00
14041;BME280;7095;51.388;6.196;2022-09-21T01:04:38;56494.44;;;-145.32;100.00
14041;BME280;7095;51.388;6.196;2022-09-21T01:07:11;56723.28;;;-145.32;100.00
14041;BME280;7095;51.388;6.196;2022-09-21T01:09:42;57079.50;;;-145.32;100.00
14041;BME280;7095;51.388;6.196;2022-09-21T01:12:24;57133.25;;;-145.32;100.00
14041;BME280;7095;51.388;6.196;2022-09-21T01:15:04;56864.56;;;-145.32;100.00
14041;BME280;7095;51.388;6.196;2022-09-21T01:17:40;56884.47;;;-145.32;100.00
14041;BME280;7095;51.388;6.196;2022-09-21T01:20:28;57047.66;;;-145.32;100.00
14041;BME280;7095;51.388;6.196;2022-09-21T01:23:17;57286.50;;;-145.32;100.00
14041;BME280;7095;51.388;6.196;2022-09-21T01:26:01;57230.75;;;-145.32;100.00
14041;BME280;7095;51.388;6.196;2022-09-21T01:28:47;57298.44;;;-145.32;100.00
14041;BME280;7095;51.388;6.196;2022-09-21T01:31:21;57493.47;;;-145.32;100.00
14041;BME280;7095;51.388;6.196;2022-09-21T01:33:54;57318.34;;;-145.32;100.00
14041;BME280;7095;51.388;6.196;2022-09-21T01:36:28;57399.94;;;-145.32;100.00
14041;BME280;7095;51.388;6.196;2022-09-21T01:39:04;57077.50;;;-145.32;100.00
14041;BME280;7095;51.388;6.196;2022-09-21T01:41:35;56816.81;;;-145.32;100.00
14041;BME280;7095;51.388;6.196;2022-09-21T01:44:10;56978.00;;;-145.32;100.00
14041;BME280;7095;51.388;6.196;2022-09-21T01:46:40;57306.38;;;-145.32;100.00
14041;BME280;7095;51.388;6.196;2022-09-21T01:49:12;56983.97;;;-145.32;100.00
14041;BME280;7095;51.388;6.196;2022-09-21T01:51:47;56993.94;;;-145.32;100.00
14041;BME280;7095;51.388;6.196;2022-09-21T01:54:19;57039.69;;;-145.32;100.00
14041;BME280;7095;51.388;6.196;2022-09-21T01:56:53;57298.44;;;-145.32;100.00
14041;BME280;7095;51.388;6.196;2022-09-21T01:59:29;57296.44;;;-145.32;100.00
14041;BME280;7095;51.388;6.196;2022-09-21T02:02:05;57095.44;;;-145.32;100.00
14041;BME280;7095;51.388;6.196;2022-09-21T02:04:37;56854.63;;;-145.32;100.00
14041;BME280;7095;51.388;6.196;2022-09-21T02:07:07;56818.81;;;-145.32;100.00
14041;BME280;7095;51.388;6.196;2022-09-21T02:09:36;56767.06;;;-145.32;100.00
14041;BME280;7095;51.388;6.196;2022-09-21T02:12:05;56948.16;;;-145.32;100.00
14041;BME280;7095;51.388;6.196;2022-09-21T02:14:36;57192.94;;;-145.32;100.00
14041;BME280;7095;51.388;6.196;2022-09-21T02:17:15;57358.13;;;-145.32;100.00
14041;BME280;7095;51.388;6.196;2022-09-21T02:19:54;57153.13;;;-145.32;100.00
14041;BME280;7095;51.388;6.196;2022-09-21T02:22:31;57111.34;;;-145.32;100.00
14041;BME280;7095;51.388;6.196;2022-09-21T02:25:06;57403.91;;;-145.32;100.00
14041;BME280;7095;51.388;6.196;2022-09-21T02:27:42;57517.38;;;-145.32;100.00
14041;BME280;7095;51.388;6.196;2022-09-21T02:30:16;57437.75;;;-145.32;100.00
14041;BME280;7095;51.388;6.196;2022-09-21T02:32:48;57079.50;;;-145.32;100.00
14041;BME280;7095;51.388;6.196;2022-09-21T02:35:27;56816.81;;;-145.32;100.00
14041;BME280;7095;51.388;6.196;2022-09-21T02:38:06;56717.31;;;-145.32;100.00
14041;BME280;7095;51.388;6.196;2022-09-21T02:40:40;57051.63;;;-145.32;100.00
14041;BME280;7095;51.388;6.196;2022-09-21T02:43:14;57075.53;;;-145.32;100.00
14041;BME280;7095;51.388;6.196;2022-09-21T02:45:50;56934.22;;;-145.32;100.00
14041;BME280;7095;51.388;6.196;2022-09-21T02:48:24;56763.09;;;-145.32;100.00
14041;BME280;7095;51.388;6.196;2022-09-21T02:50:57;56341.22;;;-145.32;100.00
14041;BME280;7095;51.388;6.196;2022-09-21T02:53:32;56196.00;;;-145.32;100.00
14041;BME280;7095;51.388;6.196;2022-09-21T02:56:03;56291.50;;;-145.32;100.00
14041;BME280;7095;51.388;6.196;2022-09-21T02:58:36;56522.31;;;-145.32;100.00
14041;BME280;7095;51.388;6.196;2022-09-21T03:01:09;56454.66;;;-145.32;100.00
14041;BME280;7095;51.388;6.196;2022-09-21T03:03:38;56442.72;;;-145.32;100.00
14041;BME280;7095;51.388;6.196;2022-09-21T03:06:07;56247.72;;;-145.32;100.00
14041;BME280;7095;51.388;6.196;2022-09-21T03:08:35;56052.72;;;-145.32;100.00
14041;BME280;7095;51.388;6.196;2022-09-21T03:11:03;55973.16;;;-145.32;100.00
14041;BME280;7095;51.388;6.196;2022-09-21T03:13:32;55714.53;;;-145.32;100.00
14041;BME280;7095;51.388;6.196;2022-09-21T03:16:02;55644.91;;;-145.32;100.00
14041;BME280;7095;51.388;6.196;2022-09-21T03:18:33;55726.47;;;-145.32;100.00
14041;BME280;7095;51.388;6.196;2022-09-21T03:21:02;55758.28;;;-145.32;100.00
14041;BME280;7095;51.388;6.196;2022-09-21T03:23:30;55358.44;;;-145.32;100.00
14041;BME280;7095;51.388;6.196;2022-09-21T03:25:59;55219.22;;;-145.32;100.00
14041;BME280;7095;51.388;6.196;2022-09-21T03:28:27;55145.63;;;-145.32;100.00
14041;BME280;7095;51.388;6.196;2022-09-21T03:30:58;55093.91;;;-145.32;100.00
14041;BME280;7095;51.388;6.196;2022-09-21T03:33:27;54998.44;;;-145.32;100.00
14041;BME280;7095;51.388;6.196;2022-09-21T03:35:57;55109.81;;;-145.32;100.00
14041;BME280;7095;51.388;6.196;2022-09-21T03:38:25;55179.44;;;-145.32;100.00
14041;BME280;7095;51.388;6.196;2022-09-21T03:40:54;55292.81;;;-145.32;100.00
14041;BME280;7095;51.388;6.196;2022-09-21T03:43:24;55145.63;;;-145.32;100.00
14041;BME280;7095;51.388;6.196;2022-09-21T03:45:52;54875.13;;;-145.32;100.00
14041;BME280;7095;51.388;6.196;2022-09-21T03:48:21;54994.47;;;-145.32;100.00
14041;BME280;7095;51.388;6.196;2022-09-21T03:50:49;55141.63;;;-145.32;100.00
14041;BME280;7095;51.388;6.196;2022-09-21T03:53:19;54900.97;;;-145.32;100.00
14041;BME280;7095;51.388;6.196;2022-09-21T03:55:48;54843.28;;;-145.32;100.00
14041;BME280;7095;51.388;6.196;2022-09-21T03:58:16;54871.16;;;-145.32;100.00
14041;BME280;7095;51.388;6.196;2022-09-21T04:00:46;54843.28;;;-145.32;100.00
14041;BME280;7095;51.388;6.196;2022-09-21T04:03:15;54918.88;;;-145.32;100.00
14041;BME280;7095;51.388;6.196;2022-09-21T04:05:44;54902.97;;;-145.32;100.00
14041;BME280;7095;51.388;6.196;2022-09-21T04:08:12;54918.88;;;-145.32;100.00
14041;BME280;7095;51.388;6.196;2022-09-21T04:10:42;54855.22;;;-145.32;100.00
14041;BME280;7095;51.388;6.196;2022-09-21T04:13:10;54861.19;;;-145.32;100.00
14041;BME280;7095;51.388;6.196;2022-09-21T04:15:39;54791.59;;;-145.32;100.00
14041;BME280;7095;51.388;6.196;2022-09-21T04:18:07;54815.47;;;-145.32;100.00
14041;BME280;7095;51.388;6.196;2022-09-21T04:20:36;54879.09;;;-145.32;100.00
14041;BME280;7095;51.388;6.196;2022-09-21T04:23:04;54841.31;;;-145.32;100.00
14041;BME280;7095;51.388;6.196;2022-09-21T04:25:36;54875.13;;;-145.32;100.00
14041;BME280;7095;51.388;6.196;2022-09-21T04:28:05;54966.59;;;-145.32;100.00
14041;BME280;7095;51.388;6.196;2022-09-21T04:30:34;55217.22;;;-145.32;100.00
14041;BME280;7095;51.388;6.196;2022-09-21T04:33:04;55205.28;;;-145.32;100.00
14041;BME280;7095;51.388;6.196;2022-09-21T04:35:32;55187.38;;;-145.32;100.00
14041;BME280;7095;51.388;6.196;2022-09-21T04:38:00;55209.25;;;-145.32;100.00
14041;BME280;7095;51.388;6.196;2022-09-21T04:40:29;55332.59;;;-145.32;100.00
14041;BME280;7095;51.388;6.196;2022-09-21T04:42:57;55386.28;;;-145.32;100.00
14041;BME280;7095;51.388;6.196;2022-09-21T04:45:27;55404.19;;;-145.32;100.00
14041;BME280;7095;51.388;6.196;2022-09-21T04:47:55;55475.81;;;-145.32;100.00
14041;BME280;7095;51.388;6.196;2022-09-21T04:50:24;55388.28;;;-145.32;100.00
14041;BME280;7095;51.388;6.196;2022-09-21T04:53:02;55314.69;;;-145.32;100.00
14041;BME280;7095;51.388;6.196;2022-09-21T04:55:30;55320.66;;;-145.32;100.00
14041;BME280;7095;51.388;6.196;2022-09-21T04:57:59;55225.19;;;-145.32;100.00
14041;BME280;7095;51.388;6.196;2022-09-21T05:00:29;55105.84;;;-145.32;100.00
14041;BME280;7095;51.388;6.196;2022-09-21T05:02:57;55177.44;;;-145.32;100.00
14041;BME280;7095;51.388;6.196;2022-09-21T05:05:26;55127.72;;;-145.32;100.00
14041;BME280;7095;51.388;6.196;2022-09-21T05:07:54;55062.09;;;-145.32;100.00
14041;BME280;7095;51.388;6.196;2022-09-21T05:10:23;55064.06;;;-145.32;100.00
14041;BME280;7095;51.388;6.196;2022-09-21T05:12:50;55020.31;;;-145.32;100.00
14041;BME280;7095;51.388;6.196;2022-09-21T05:15:19;54950.69;;;-145.32;100.00
14041;BME280;7095;51.388;6.196;2022-09-21T05:17:49;55066.06;;;-145.32;100.00
14041;BME280;7095;51.388;6.196;2022-09-21T05:20:18;54962.63;;;-145.32;100.00
14041;BME280;7095;51.388;6.196;2022-09-21T05:22:46;55046.16;;;-145.32;100.00
14041;BME280;7095;51.388;6.196;2022-09-21T05:25:14;55105.84;;;-145.32;100.00
14041;BME280;7095;51.388;6.196;2022-09-21T05:27:43;54930.81;;;-145.32;100.00
14041;BME280;7095;51.388;6.196;2022-09-21T05:30:12;54900.97;;;-145.32;100.00
14041;BME280;7095;51.388;6.196;2022-09-21T05:32:46;54902.97;;;-145.32;100.00
14041;BME280;7095;51.388;6.196;2022-09-21T05:35:26;54817.44;;;-145.32;100.00
14041;BME280;7095;51.388;6.196;2022-09-21T05:37:59;54837.34;;;-145.32;100.00
14041;BME280;7095;51.388;6.196;2022-09-21T05:40:31;54897.00;;;-145.32;100.00
14041;BME280;7095;51.388;6.196;2022-09-21T05:43:00;55002.41;;;-145.32;100.00
14041;BME280;7095;51.388;6.196;2022-09-21T05:45:29;54982.53;;;-145.32;100.00
14041;BME280;7095;51.388;6.196;2022-09-21T05:48:15;55105.84;;;-145.32;100.00
14041;BME280;7095;51.388;6.196;2022-09-21T05:50:54;55145.63;;;-145.32;100.00
14041;BME280;7095;51.388;6.196;2022-09-21T05:53:42;55268.94;;;-145.32;100.00
14041;BME280;7095;51.388;6.196;2022-09-21T05:56:20;55332.59;;;-145.32;100.00
14041;BME280;7095;51.388;6.196;2022-09-21T05:58:56;55406.19;;;-145.32;100.00
14041;BME280;7095;51.388;6.196;2022-09-21T06:01:36;55507.63;;;-145.32;100.00
14041;BME280;7095;51.388;6.196;2022-09-21T06:04:09;55525.53;;;-145.32;100.00
14041;BME280;7095;51.388;6.196;2022-09-21T06:06:40;55569.31;;;-145.32;100.00
14041;BME280;7095;51.388;6.196;2022-09-21T06:09:08;55698.63;;;-145.32;100.00
14041;BME280;7095;51.388;6.196;2022-09-21T06:11:36;55845.81;;;-145.32;100.00
14041;BME280;7095;51.388;6.196;2022-09-21T06:14:05;55784.16;;;-145.32;100.00
14041;BME280;7095;51.388;6.196;2022-09-21T06:16:37;55770.22;;;-145.32;100.00
14041;BME280;7095;51.388;6.196;2022-09-21T06:19:06;55823.94;;;-145.32;100.00
14041;BME280;7095;51.388;6.196;2022-09-21T06:21:37;55901.53;;;-145.32;100.00
14041;BME280;7095;51.388;6.196;2022-09-21T06:24:07;55985.09;;;-145.32;100.00
14041;BME280;7095;51.388;6.196;2022-09-21T06:26:36;56084.56;;;-145.32;100.00
14041;BME280;7095;51.388;6.196;2022-09-21T06:29:04;56104.47;;;-145.32;100.00
14041;BME280;7095;51.388;6.196;2022-09-21T06:31:33;56196.00;;;-145.32;100.00
14041;BME280;7095;51.388;6.196;2022-09-21T06:34:02;56299.44;;;-145.32;100.00
14041;BME280;7095;51.388;6.196;2022-09-21T06:36:31;56454.66;;;-145.32;100.00
14041;BME280;7095;51.388;6.196;2022-09-21T06:38:59;56544.19;;;-145.32;100.00
14041;BME280;7095;51.388;6.196;2022-09-21T06:41:29;56745.16;;;-145.32;100.00
14041;BME280;7095;51.388;6.196;2022-09-21T06:43:58;56739.19;;;-145.32;100.00
14041;BME280;7095;51.388;6.196;2022-09-21T06:46:26;56733.22;;;-145.32;100.00
14041;BME280;7095;51.388;6.196;2022-09-21T06:48:55;56991.94;;;-145.32;100.00
14041;BME280;7095;51.388;6.196;2022-09-21T06:51:23;57278.53;;;-145.32;100.00
14041;BME280;7095;51.388;6.196;2022-09-21T06:53:53;57382.03;;;-145.32;100.00
14041;BME280;7095;51.388;6.196;2022-09-21T06:56:23;57585.03;;;-145.32;100.00
14041;BME280;7095;51.388;6.196;2022-09-21T06:58:53;57837.84;;;-145.32;100.00
14041;BME280;7095;51.388;6.196;2022-09-21T07:01:22;58013.03;;;-145.32;100.00
14041;BME280;7095;51.388;6.196;2022-09-21T07:03:51;58022.97;;;-145.32;100.00
14041;BME280;7095;51.388;6.196;2022-09-21T07:06:20;57983.16;;;-145.32;100.00
14041;BME280;7095;51.388;6.196;2022-09-21T07:08:51;58349.47;;;-145.32;100.00
14041;BME280;7095;51.388;6.196;2022-09-21T07:11:40;58636.16;;;-145.32;100.00
14041;BME280;7095;51.388;6.196;2022-09-21T07:14:10;58695.91;;;-145.32;100.00
14041;BME280;7095;51.388;6.196;2022-09-21T07:16:38;58620.25;;;-145.32;100.00
14041;BME280;7095;51.388;6.196;2022-09-21T07:19:07;59110.06;;;-145.32;100.00
14041;BME280;7095;51.388;6.196;2022-09-21T07:21:38;59014.50;;;-145.32;100.00
14041;BME280;7095;51.388;6.196;2022-09-21T07:24:07;59237.53;;;-145.32;100.00
14041;BME280;7095;51.388;6.196;2022-09-21T07:26:38;59165.84;;;-145.32;100.00
14041;BME280;7095;51.388;6.196;2022-09-21T07:29:07;59237.53;;;-145.32;100.00
14041;BME280;7095;51.388;6.196;2022-09-21T07:31:37;59361.00;;;-145.32;100.00
14041;BME280;7095;51.388;6.196;2022-09-21T07:34:05;59213.63;;;-145.32;100.00
14041;BME280;7095;51.388;6.196;2022-09-21T07:36:34;59404.81;;;-145.32;100.00
14041;BME280;7095;51.388;6.196;2022-09-21T07:39:05;59502.41;;;-145.32;100.00
14041;BME280;7095;51.388;6.196;2022-09-21T07:41:36;59448.63;;;-145.32;100.00
14041;BME280;7095;51.388;6.196;2022-09-21T07:44:04;59623.88;;;-145.32;100.00
14041;BME280;7095;51.388;6.196;2022-09-21T07:46:33;59510.38;;;-145.32;100.00
14041;BME280;7095;51.388;6.196;2022-09-21T07:49:03;59733.44;;;-145.32;100.00
14041;BME280;7095;51.388;6.196;2022-09-21T07:51:32;59607.94;;;-145.32;100.00
14041;BME280;7095;51.388;6.196;2022-09-21T07:54:00;59526.28;;;-145.32;100.00
14041;BME280;7095;51.388;6.196;2022-09-21T07:56:31;59492.44;;;-145.32;100.00
14041;BME280;7095;51.388;6.196;2022-09-21T07:58:59;59412.78;;;-145.32;100.00
14041;BME280;7095;51.388;6.196;2022-09-21T08:01:34;59452.59;;;-145.32;100.00
14041;BME280;7095;51.388;6.196;2022-09-21T08:04:06;59723.47;;;-145.32;100.00
14041;BME280;7095;51.388;6.196;2022-09-21T08:06:36;59759.31;;;-145.32;100.00
14041;BME280;7095;51.388;6.196;2022-09-21T08:09:06;60472.44;;;-145.32;100.00
14041;BME280;7095;51.388;6.196;2022-09-21T08:11:35;60034.19;;;-145.32;100.00
14041;BME280;7095;51.388;6.196;2022-09-21T08:14:05;60175.63;;;-145.32;100.00
14041;BME280;7095;51.388;6.196;2022-09-21T08:16:54;59603.97;;;-145.32;100.00
14041;BME280;7095;51.388;6.196;2022-09-21T08:19:27;59213.63;;;-145.32;100.00
14041;BME280;7095;51.388;6.196;2022-09-21T08:21:55;59197.69;;;-145.32;100.00
14041;BME280;7095;51.388;6.196;2022-09-21T08:24:24;59372.94;;;-145.32;100.00
14041;BME280;7095;51.388;6.196;2022-09-21T08:26:53;59353.03;;;-145.32;100.00
14041;BME280;7095;51.388;6.196;2022-09-21T08:29:23;59261.41;;;-145.32;100.00
14041;BME280;7095;51.388;6.196;2022-09-21T08:31:52;59139.94;;;-145.32;100.00
14041;BME280;7095;51.388;6.196;2022-09-21T08:34:20;58962.72;;;-145.32;100.00
14041;BME280;7095;51.388;6.196;2022-09-21T08:36:51;58222.06;;;-145.32;100.00
14041;BME280;7095;51.388;6.196;2022-09-21T08:39:21;58725.75;;;-145.32;100.00
14041;BME280;7095;51.388;6.196;2022-09-21T08:42:02;58851.22;;;-145.32;100.00
14041;BME280;7095;51.388;6.196;2022-09-21T08:44:39;57585.03;;;-145.32;100.00
14041;BME280;7095;51.388;6.196;2022-09-21T08:47:12;57740.31;;;-145.32;100.00
14041;BME280;7095;51.388;6.196;2022-09-21T08:49:46;57326.28;;;-145.32;100.00
14041;BME280;7095;51.388;6.196;2022-09-21T08:52:20;57927.41;;;-145.32;100.00
14041;BME280;7095;51.388;6.196;2022-09-21T08:54:55;57362.13;;;-145.32;100.00
14041;BME280;7095;51.388;6.196;2022-09-21T08:57:28;56775.03;;;-145.32;100.00
14041;BME280;7095;51.388;6.196;2022-09-21T08:59:58;56582.00;;;-145.32;100.00
14041;BME280;7095;51.388;6.196;2022-09-21T09:02:39;56512.34;;;-145.32;100.00
14041;BME280;7095;51.388;6.196;2022-09-21T09:05:22;56150.22;;;-145.32;100.00
14041;BME280;7095;51.388;6.196;2022-09-21T09:08:15;56585.97;;;-145.32;100.00
14041;BME280;7095;51.388;6.196;2022-09-21T09:10:57;55714.53;;;-145.32;100.00
14041;BME280;7095;51.388;6.196;2022-09-21T09:13:40;55730.44;;;-145.32;100.00
14041;BME280;7095;51.388;6.196;2022-09-21T09:16:17;55436.03;;;-145.32;100.00
14041;BME280;7095;51.388;6.196;2022-09-21T09:18:52;55412.16;;;-145.32;100.00
14041;BME280;7095;51.388;6.196;2022-09-21T09:21:25;55097.88;;;-145.32;100.00
14041;BME280;7095;51.388;6.196;2022-09-21T09:24:02;54942.75;;;-145.32;100.00
14041;BME280;7095;51.388;6.196;2022-09-21T09:26:36;54716.00;;;-145.32;100.00
14041;BME280;7095;51.388;6.196;2022-09-21T09:29:15;54608.63;;;-145.32;100.00
14041;BME280;7095;51.388;6.196;2022-09-21T09:31:47;54433.63;;;-145.32;100.00
14041;BME280;7095;51.388;6.196;2022-09-21T09:34:21;54566.84;;;-145.32;100.00
14041;BME280;7095;51.388;6.196;2022-09-21T09:36:56;54175.13;;;-145.32;100.00
14041;BME280;7095;51.388;6.196;2022-09-21T09:39:28;54127.38;;;-145.32;100.00
14041;BME280;7095;51.388;6.196;2022-09-21T09:42:16;54063.75;;;-145.32;100.00
14041;BME280;7095;51.388;6.196;2022-09-21T09:45:17;53936.50;;;-145.32;100.00
14041;BME280;7095;51.388;6.196;2022-09-21T09:48:03;53902.69;;;-145.32;100.00
14041;BME280;7095;51.388;6.196;2022-09-21T09:50:35;53914.63;;;-145.32;100.00
14041;BME280;7095;51.388;6.196;2022-09-21T09:53:08;53880.84;;;-145.32;100.00
14041;BME280;7095;51.388;6.196;2022-09-21T09:55:41;53773.47;;;-145.32;100.00
14041;BME280;7095;51.388;6.196;2022-09-21T09:58:17;53733.69;;;-145.32;100.00
14041;BME280;7095;51.388;6.196;2022-09-21T10:00:49;53689.97;;;-145.32;100.00
14041;BME280;7095;51.388;6.196;2022-09-21T10:03:21;53642.25;;;-145.32;100.00
14041;BME280;7095;51.388;6.196;2022-09-21T10:05:50;53582.59;;;-145.32;100.00
14041;BME280;7095;51.388;6.196;2022-09-21T10:08:29;53578.63;;;-145.32;100.00
14041;BME280;7095;51.388;6.196;2022-09-21T10:10:59;53598.50;;;-145.32;100.00
14041;BME280;7095;51.388;6.196;2022-09-21T10:13:30;53570.69;;;-145.32;100.00
14041;BME280;7095;51.388;6.196;2022-09-21T10:16:04;53520.97;;;-145.32;100.00
14041;BME280;7095;51.388;6.196;2022-09-21T10:18:38;53513.03;;;-145.32;100.00
14041;BME280;7095;51.388;6.196;2022-09-21T10:21:15;53467.28;;;-145.32;100.00
14041;BME280;7095;51.388;6.196;2022-09-21T10:23:47;53441.44;;;-145.32;100.00
14041;BME280;7095;51.388;6.196;2022-09-21T10:26:18;53457.34;;;-145.32;100.00
14041;BME280;7095;51.388;6.196;2022-09-21T10:28:55;53419.59;;;-145.32;100.00
14041;BME280;7095;51.388;6.196;2022-09-21T10:31:25;53431.50;;;-145.32;100.00
14041;BME280;7095;51.388;6.196;2022-09-21T10:34:06;53443.44;;;-145.32;100.00
14041;BME280;7095;51.388;6.196;2022-09-21T10:36:36;53437.47;;;-145.32;100.00
14041;BME280;7095;51.388;6.196;2022-09-21T10:39:26;53413.63;;;-145.32;100.00
14041;BME280;7095;51.388;6.196;2022-09-21T10:42:00;53415.59;;;-145.32;100.00
14041;BME280;7095;51.388;6.196;2022-09-21T10:44:39;53439.47;;;-145.32;100.00
14041;BME280;7095;51.388;6.196;2022-09-21T10:47:18;53431.50;;;-145.32;100.00
14041;BME280;7095;51.388;6.196;2022-09-21T10:49:49;53407.66;;;-145.32;100.00
14041;BME280;7095;51.388;6.196;2022-09-21T10:52:20;53413.63;;;-145.32;100.00
14041;BME280;7095;51.388;6.196;2022-09-21T10:54:52;53409.63;;;-145.32;100.00
14041;BME280;7095;51.388;6.196;2022-09-21T10:57:25;53415.59;;;-145.32;100.00
14041;BME280;7095;51.388;6.196;2022-09-21T10:59:55;53413.63;;;-145.32;100.00
14041;BME280;7095;51.388;6.196;2022-09-21T11:02:27;53375.84;;;-145.32;100.00
14041;BME280;7095;51.388;6.196;2022-09-21T11:05:01;53399.69;;;-145.32;99.57
14041;BME280;7095;51.388;6.196;2022-09-21T11:07:35;53385.78;;;-145.32;100.00
14041;BME280;7095;51.388;6.196;2022-09-21T11:10:13;53367.91;;;-145.32;100.00
14041;BME280;7095;51.388;6.196;2022-09-21T11:12:58;53355.97;;;-145.32;100.00
14041;BME280;7095;51.388;6.196;2022-09-21T11:15:39;53342.06;;;-145.32;96.79
14041;BME280;7095;51.388;6.196;2022-09-21T11:18:15;53367.91;;;-145.32;93.19
14041;BME280;7095;51.388;6.196;2022-09-21T11:20:48;53355.97;;;-145.32;96.76
14041;BME280;7095;51.388;6.196;2022-09-21T11:23:35;53363.91;;;-145.32;81.25
14041;BME280;7095;51.388;6.196;2022-09-21T11:26:11;53352.00;;;-145.32;87.96
14041;BME280;7095;51.388;6.196;2022-09-21T11:28:48;53342.06;;;-145.32;79.17
14041;BME280;7095;51.388;6.196;2022-09-21T11:34:33;53330.13;;;-145.32;72.80
14041;BME280;7095;51.388;6.196;2022-09-21T11:37:18;53336.09;;;-145.32;75.45
14041;BME280;7095;51.388;6.196;2022-09-21T11:40:02;53359.94;;;-145.32;77.90
14041;BME280;7095;51.388;6.196;2022-09-21T11:42:47;53316.22;;;-145.32;72.02
14041;BME280;7095;51.388;6.196;2022-09-21T11:45:34;53328.13;;;-145.32;67.69
14041;BME280;7095;51.388;6.196;2022-09-21T11:48:15;53336.09;;;-145.32;71.39
14041;BME280;7095;51.388;6.196;2022-09-21T11:50:55;53308.25;;;-145.32;65.60
14041;BME280;7095;51.388;6.196;2022-09-21T11:53:39;53308.25;;;-145.32;65.84
14041;BME280;7095;51.388;6.196;2022-09-21T11:56:35;53318.19;;;-145.32;59.79
14041;BME280;7095;51.388;6.196;2022-09-21T11:59:36;53330.13;;;-145.32;63.53
14041;BME280;7095;51.388;6.196;2022-09-21T12:05:30;53314.22;;;-145.32;62.28
14041;BME280;7095;51.388;6.196;2022-09-21T12:08:19;53288.38;;;-145.32;54.21
14041;BME280;7095;51.388;6.196;2022-09-21T12:10:57;53300.31;;;-145.32;50.73
14041;BME280;7095;51.388;6.196;2022-09-21T12:13:34;53308.25;;;-145.32;46.49
14041;BME280;7095;51.388;6.196;2022-09-21T12:16:11;53300.31;;;-145.32;44.86
14041;BME280;7095;51.388;6.196;2022-09-21T12:18:52;53320.19;;;-145.32;45.08
14041;BME280;7095;51.388;6.196;2022-09-21T12:21:26;53340.06;;;-145.32;46.90
14041;BME280;7095;51.388;6.196;2022-09-21T12:24:01;53336.09;;;-145.32;46.76
14041;BME280;7095;51.388;6.196;2022-09-21T12:26:36;53312.22;;;-145.32;48.03
14041;BME280;7095;51.388;6.196;2022-09-21T12:29:11;53352.00;;;-145.32;50.83
14041;BME280;7095;51.388;6.196;2022-09-21T12:31:56;53328.13;;;-145.32;52.43
14041;BME280;7095;51.388;6.196;2022-09-21T12:34:33;53377.84;;;-145.32;52.63
14041;BME280;7095;51.388;6.196;2022-09-21T12:37:08;53332.09;;;-145.32;57.88
14041;BME280;7095;51.388;6.196;2022-09-21T12:39:43;53320.19;;;-145.32;61.45
14041;BME280;7095;51.388;6.196;2022-09-21T12:42:28;53352.00;;;-145.32;57.58
14041;BME280;7095;51.388;6.196;2022-09-21T12:45:00;53322.16;;;-145.32;60.85
14041;BME280;7095;51.388;6.196;2022-09-21T12:47:42;53363.91;;;-145.32;63.70
14041;BME280;7095;51.388;6.196;2022-09-21T12:50:19;53340.06;;;-145.32;62.74
14041;BME280;7095;51.388;6.196;2022-09-21T12:52:50;53371.88;;;-145.32;63.87
14041;BME280;7095;51.388;6.196;2022-09-21T12:55:33;53352.00;;;-145.32;65.03
14041;BME280;7095;51.388;6.196;2022-09-21T12:58:14;53346.03;;;-145.32;70.27
14041;BME280;7095;51.388;6.196;2022-09-21T13:00:48;53377.84;;;-145.32;72.28
14041;BME280;7095;51.388;6.196;2022-09-21T13:03:27;53361.94;;;-145.32;70.35
14041;BME280;7095;51.388;6.196;2022-09-21T13:06:13;53379.81;;;-145.32;74.26
14041;BME280;7095;51.388;6.196;2022-09-21T13:08:49;53387.78;;;-145.32;74.60
14041;BME280;7095;51.388;6.196;2022-09-21T13:11:19;53391.75;;;-145.32;77.79
14041;BME280;7095;51.388;6.196;2022-09-21T13:13:51;53383.78;;;-145.32;78.92
14041;BME280;7095;51.388;6.196;2022-09-21T13:16:25;53407.66;;;-145.32;83.08
14041;BME280;7095;51.388;6.196;2022-09-21T13:18:57;53395.72;;;-145.32;85.81